To NAV CANADA Home Page Login to a new session Search on AWWS site Feedback and Comments Disclaimer Vers la page française équivalente Tips FAQ What's new on the site To the Forecasts and Observations / NOTAM section To "File a Flight Plan" website Publications and other links Update of the User's profile FIC Telephone Numbers My Weather Data Folder Route Weather Data Regional Weather Data Local Weather Data To the Forecasts and Observations / NOTAM section
Request Generated 02/23/2017 at 20:45:57 UTC . Weather information available at that time is displayed.

METAR/TAF

SASKATOON/JOHN G. DIEFENBAKER INTL/SK    

METAR CYXE 232000Z 32010KT 50SM FEW025 BKN057 M05/M12 A3011 RMK
SC2SC5 SLP233=
METAR CYXE 231900Z 32013KT 15SM SCT023 BKN058 M05/M11 A3013 RMK
SC3SC4 SLP238=
METAR CYXE 231800Z 30009G15KT 15SM BKN025 BKN060 M05/M10 A3013 RMK
SC5SC2 SLP238=

TAF AMD CYXE 232012Z 2320/2418 32012KT P6SM FEW020 BKN040 TEMPO
2320/2403 6SM -SN BKN020
BECMG 2401/2403 12005KT
FM240300 12005KT P6SM BKN030 BKN080 TEMPO 2403/2418 4SM -SN
OVC020
RMK NXT FCST BY 240000Z=
Your time UTC time
Weather data provided by Environment Canada and NAV CANADA